createdAt,value
2022-11-12T00:00:19.479Z,94.51
2022-11-12T00:01:19.703Z,94.51
2022-11-12T00:02:19.925Z,94.40
2022-11-12T00:03:20.124Z,94.40
2022-11-12T00:04:20.390Z,94.51
2022-11-12T00:05:20.478Z,94.60
2022-11-12T00:06:20.708Z,94.71
2022-11-12T00:07:20.920Z,94.85
2022-11-12T00:08:21.126Z,94.96
2022-11-12T00:09:21.333Z,94.96
2022-11-12T00:10:21.545Z,94.85
2022-11-12T00:11:21.771Z,94.71
2022-11-12T00:12:21.980Z,94.81
2022-11-12T00:13:22.196Z,94.71
2022-11-12T00:14:22.409Z,94.55
2022-11-12T00:15:22.616Z,94.55
2022-11-12T00:16:22.844Z,94.85
2022-11-12T00:17:23.051Z,94.65
2022-11-12T00:18:23.384Z,94.65
2022-11-12T00:19:23.407Z,94.65
2022-11-12T00:20:23.614Z,94.65
2022-11-12T00:21:23.830Z,94.55
2022-11-12T00:22:24.038Z,94.45
2022-11-12T00:23:24.243Z,94.24
2022-11-12T00:24:24.458Z,94.13
2022-11-12T00:25:24.663Z,93.93
2022-11-12T00:26:24.901Z,93.79
2022-11-12T00:27:25.112Z,93.68
2022-11-12T00:28:25.703Z,93.62
2022-11-12T00:29:25.574Z,93.62
2022-11-12T00:30:25.793Z,93.62
2022-11-12T00:31:26.034Z,93.73
2022-11-12T00:32:26.193Z,93.41
2022-11-12T00:33:26.406Z,93.41
2022-11-12T00:34:26.607Z,93.41
2022-11-12T00:35:26.846Z,93.21
2022-11-12T00:36:27.086Z,93.11
2022-11-12T00:37:27.298Z,93.11
2022-11-12T00:38:27.805Z,93.06
2022-11-12T00:39:27.675Z,92.96
2022-11-12T00:40:27.898Z,92.76
2022-11-12T00:41:28.132Z,92.69
2022-11-12T00:42:28.351Z,92.80
2022-11-12T00:43:28.576Z,93.01
2022-11-12T00:44:28.803Z,93.01
2022-11-12T00:45:29.020Z,93.11
2022-11-12T00:46:29.262Z,93.11
2022-11-12T00:47:29.484Z,93.01
2022-11-12T00:48:29.798Z,93.01
2022-11-12T00:49:29.917Z,92.80
2022-11-12T00:50:30.141Z,92.80
2022-11-12T00:51:30.379Z,92.90
2022-11-12T00:52:30.602Z,92.69
2022-11-12T00:53:30.831Z,92.49
2022-11-12T00:54:31.051Z,92.44
2022-11-12T00:55:31.271Z,92.14
2022-11-12T00:56:35.396Z,92.03
2022-11-12T00:57:31.731Z,92.03
2022-11-12T00:58:31.969Z,92.03
2022-11-12T00:59:32.200Z,92.03
2022-11-12T01:00:32.431Z,92.14
2022-11-12T01:01:32.704Z,91.83
2022-11-12T01:02:37.021Z,91.83
2022-11-12T01:03:34.112Z,91.62
2022-11-12T01:04:33.317Z,91.62
2022-11-12T01:05:33.537Z,91.62
2022-11-12T01:06:33.822Z,91.62
2022-11-12T01:07:34.008Z,91.62
2022-11-12T01:08:34.258Z,91.52
2022-11-12T01:09:34.445Z,91.52
2022-11-12T01:10:34.650Z,91.52
2022-11-12T01:11:34.869Z,91.42
2022-11-12T01:12:35.075Z,91.31
2022-11-12T01:13:38.790Z,91.31
2022-11-12T01:14:36.451Z,91.31
2022-11-12T01:15:35.666Z,91.31
2022-11-12T01:16:35.907Z,91.56
2022-11-12T01:17:43.153Z,91.66
2022-11-12T01:18:36.332Z,91.77
2022-11-12T01:19:36.548Z,91.77
2022-11-12T01:20:36.761Z,91.66
2022-11-12T01:21:36.984Z,91.66
2022-11-12T01:22:37.216Z,91.56
2022-11-12T01:23:37.430Z,91.56
2022-11-12T01:24:37.731Z,91.46
2022-11-12T01:25:37.830Z,91.66
2022-11-12T01:26:38.089Z,91.77
2022-11-12T01:27:38.229Z,91.66
2022-11-12T01:28:38.489Z,91.77
2022-11-12T01:29:38.702Z,91.77
2022-11-12T01:30:38.908Z,91.97
2022-11-12T01:31:39.145Z,91.97
2022-11-12T01:32:39.357Z,91.87
2022-11-12T01:33:39.589Z,91.97
2022-11-12T01:34:39.807Z,91.97
2022-11-12T01:35:40.019Z,92.18
2022-11-12T01:36:40.357Z,92.33
2022-11-12T01:37:40.490Z,92.43
2022-11-12T01:38:40.760Z,92.63
2022-11-12T01:39:40.976Z,92.63
2022-11-12T01:40:41.096Z,92.84
2022-11-12T01:41:41.360Z,92.94
2022-11-12T01:42:42.023Z,92.94
2022-11-12T01:43:42.193Z,93.05
2022-11-12T01:44:41.838Z,93.15
2022-11-12T01:45:42.048Z,93.05
2022-11-12T01:46:42.282Z,93.56
2022-11-12T01:47:42.487Z,93.46
2022-11-12T01:48:42.703Z,93.35
2022-11-12T01:49:46.094Z,93.25
2022-11-12T01:50:44.070Z,93.05
2022-11-12T01:51:43.310Z,92.94
2022-11-12T01:52:43.525Z,92.63
2022-11-12T01:53:43.725Z,92.43
2022-11-12T01:54:43.943Z,92.33
2022-11-12T01:55:44.177Z,92.02
2022-11-12T01:56:44.411Z,91.81
2022-11-12T01:57:44.628Z,91.60
2022-11-12T01:58:44.840Z,91.40
2022-11-12T01:59:45.044Z,91.25
2022-11-12T02:00:45.293Z,91.15
2022-11-12T02:01:45.516Z,90.73
2022-11-12T02:02:45.741Z,90.64
2022-11-12T02:03:45.956Z,90.53
2022-11-12T02:04:46.173Z,90.43
2022-11-12T02:05:46.377Z,90.22
2022-11-12T02:06:46.635Z,90.22
2022-11-12T02:07:46.831Z,90.22
2022-11-12T02:08:47.056Z,90.22
2022-11-12T02:09:47.270Z,90.01
2022-11-12T02:10:47.494Z,89.91
2022-11-12T02:11:47.737Z,89.71
2022-11-12T02:12:47.957Z,89.61
2022-11-12T02:13:48.208Z,89.50
2022-11-12T02:14:49.372Z,89.29
2022-11-12T02:15:48.668Z,89.29
2022-11-12T02:16:48.873Z,89.40
2022-11-12T02:17:49.111Z,89.29
2022-11-12T02:18:49.332Z,89.29
2022-11-12T02:19:49.545Z,89.19
2022-11-12T02:20:49.765Z,89.29
2022-11-12T02:21:50.012Z,89.09
2022-11-12T02:22:50.224Z,89.09
2022-11-12T02:23:50.437Z,89.09
2022-11-12T02:24:57.601Z,89.19
2022-11-12T02:25:50.902Z,88.89
2022-11-12T02:26:51.158Z,88.89
2022-11-12T02:27:51.378Z,89.09
2022-11-12T02:28:52.547Z,89.09
2022-11-12T02:29:51.760Z,89.19
2022-11-12T02:30:51.991Z,89.09
2022-11-12T02:31:52.405Z,89.29
2022-11-12T02:32:52.918Z,89.19
2022-11-12T02:33:52.578Z,89.29
2022-11-12T02:34:52.803Z,89.40
2022-11-12T02:35:53.028Z,89.50
2022-11-12T02:36:53.263Z,89.29
2022-11-12T02:37:53.504Z,89.09
2022-11-12T02:38:53.724Z,89.19
2022-11-12T02:39:53.949Z,88.99
2022-11-12T02:40:54.181Z,88.99
2022-11-12T02:41:54.432Z,88.78
2022-11-12T02:42:54.657Z,88.78
2022-11-12T02:43:54.883Z,88.78
2022-11-12T02:44:55.105Z,88.89
2022-11-12T02:45:55.802Z,89.09
2022-11-12T02:46:55.616Z,88.68
2022-11-12T02:47:55.835Z,88.68
2022-11-12T02:48:56.059Z,88.68
2022-11-12T02:49:56.289Z,88.78
2022-11-12T02:50:56.501Z,88.68
2022-11-12T02:51:56.747Z,88.47
2022-11-12T02:52:56.964Z,88.68
2022-11-12T02:53:57.155Z,88.17
2022-11-12T02:54:57.386Z,88.17
2022-11-12T02:55:57.611Z,88.17
2022-11-12T02:56:57.851Z,87.85
2022-11-12T02:57:58.055Z,87.96
2022-11-12T02:58:58.272Z,87.85
2022-11-12T02:59:58.542Z,87.40
2022-11-12T03:00:58.735Z,87.40
2022-11-12T03:01:58.911Z,87.30
2022-11-12T03:02:59.395Z,87.30
2022-11-12T03:04:03.167Z,87.60
2022-11-12T03:04:59.485Z,87.19
2022-11-12T03:06:00.080Z,87.30
2022-11-12T03:07:00.015Z,87.19
2022-11-12T03:08:00.196Z,87.19
2022-11-12T03:09:00.411Z,87.40
2022-11-12T03:10:00.621Z,87.60
2022-11-12T03:11:01.789Z,87.65
2022-11-12T03:12:01.037Z,87.96
2022-11-12T03:13:01.244Z,87.96
2022-11-12T03:14:01.459Z,88.17
2022-11-12T03:15:01.672Z,88.17
2022-11-12T03:16:01.884Z,88.26
2022-11-12T03:17:02.117Z,88.17
2022-11-12T03:18:02.335Z,88.26
2022-11-12T03:19:02.999Z,88.26
2022-11-12T03:20:02.784Z,88.17
2022-11-12T03:21:02.978Z,88.06
2022-11-12T03:22:03.209Z,88.06
2022-11-12T03:23:03.412Z,88.17
2022-11-12T03:24:03.635Z,88.57
2022-11-12T03:25:03.860Z,88.57
2022-11-12T03:26:04.063Z,88.57
2022-11-12T03:27:04.295Z,88.62
2022-11-12T03:28:04.495Z,88.51
2022-11-12T03:29:04.710Z,88.92
2022-11-12T03:30:04.914Z,88.72
2022-11-12T03:31:05.118Z,89.03
2022-11-12T03:32:05.343Z,88.82
2022-11-12T03:33:05.537Z,88.92
2022-11-12T03:34:05.754Z,88.92
2022-11-12T03:35:05.965Z,89.13
2022-11-12T03:36:06.172Z,89.23
2022-11-12T03:37:06.393Z,88.82
2022-11-12T03:38:06.703Z,88.92
2022-11-12T03:39:06.790Z,89.13
2022-11-12T03:40:06.996Z,89.13
2022-11-12T03:41:07.201Z,89.44
2022-11-12T03:42:07.421Z,89.44
2022-11-12T03:43:07.625Z,89.48
2022-11-12T03:44:07.835Z,89.58
2022-11-12T03:45:08.045Z,89.48
2022-11-12T03:46:08.251Z,89.58
2022-11-12T03:47:08.479Z,89.79
2022-11-12T03:48:08.693Z,89.79
2022-11-12T03:49:08.885Z,89.79
2022-11-12T03:50:09.087Z,89.79
2022-11-12T03:51:09.293Z,89.79
2022-11-12T03:52:09.538Z,90.20
2022-11-12T03:53:09.730Z,90.10
2022-11-12T03:54:09.940Z,90.20
2022-11-12T03:55:10.153Z,90.00
2022-11-12T03:56:10.370Z,90.20
2022-11-12T03:57:10.599Z,90.10
2022-11-12T03:58:10.820Z,90.20
2022-11-12T03:59:11.039Z,90.20
2022-11-12T04:00:11.277Z,90.41
2022-11-12T04:01:11.517Z,90.61
2022-11-12T04:02:11.756Z,90.61
2022-11-12T04:03:11.967Z,90.51
2022-11-12T04:04:12.201Z,90.86
2022-11-12T04:05:12.402Z,90.86
2022-11-12T04:06:12.622Z,90.76
2022-11-12T04:07:12.910Z,91.17
2022-11-12T04:08:13.116Z,90.86
2022-11-12T04:09:13.345Z,90.86
2022-11-12T04:10:13.572Z,91.17
2022-11-12T04:11:13.813Z,91.17
2022-11-12T04:12:14.075Z,91.38
2022-11-12T04:13:14.303Z,91.38
2022-11-12T04:14:14.530Z,91.58
2022-11-12T04:15:14.769Z,91.79
2022-11-12T04:16:14.990Z,91.69
2022-11-12T04:17:15.224Z,91.89
2022-11-12T04:18:15.451Z,91.79
2022-11-12T04:19:15.673Z,91.69
2022-11-12T04:20:15.893Z,91.94
2022-11-12T04:21:16.120Z,92.04
2022-11-12T04:22:16.495Z,92.55
2022-11-12T04:23:16.570Z,92.76
2022-11-12T04:24:16.980Z,92.86
2022-11-12T04:25:16.971Z,92.86
2022-11-12T04:26:17.205Z,92.86
2022-11-12T04:27:17.440Z,92.76
2022-11-12T04:28:17.651Z,92.76
2022-11-12T04:29:17.858Z,92.76
2022-11-12T04:30:18.076Z,93.01
2022-11-12T04:31:18.370Z,93.43
2022-11-12T04:32:18.508Z,93.69
2022-11-12T04:33:18.718Z,93.53
2022-11-12T04:34:18.984Z,93.28
2022-11-12T04:35:19.181Z,93.18
2022-11-12T04:36:19.412Z,93.28
2022-11-12T04:37:23.334Z,93.49
2022-11-12T04:38:19.857Z,93.59
2022-11-12T04:39:20.072Z,93.49
2022-11-12T04:40:20.286Z,93.90
2022-11-12T04:41:20.495Z,93.69
2022-11-12T04:42:20.733Z,93.18
2022-11-12T04:43:20.956Z,92.86
2022-11-12T04:44:21.180Z,92.97
2022-11-12T04:45:22.355Z,93.18
2022-11-12T04:46:21.563Z,93.07
2022-11-12T04:47:21.809Z,93.22
2022-11-12T04:48:22.035Z,93.43
2022-11-12T04:49:22.262Z,93.63
2022-11-12T04:50:22.464Z,93.94
2022-11-12T04:51:26.683Z,94.15
2022-11-12T04:52:22.909Z,94.04
2022-11-12T04:53:23.124Z,93.94
2022-11-12T04:54:23.353Z,93.94
2022-11-12T04:55:23.570Z,93.84
2022-11-12T04:56:23.793Z,94.15
2022-11-12T04:57:24.067Z,94.46
2022-11-12T04:58:24.493Z,94.56
2022-11-12T04:59:24.345Z,94.56
2022-11-12T05:00:24.571Z,94.46
2022-11-12T05:01:24.772Z,94.60
2022-11-12T05:02:24.960Z,94.81
2022-11-12T05:03:25.118Z,94.81
2022-11-12T05:04:25.272Z,94.81
2022-11-12T05:05:28.575Z,94.92
2022-11-12T05:06:26.764Z,94.92
2022-11-12T05:07:25.938Z,95.02
2022-11-12T05:08:26.524Z,95.22
2022-11-12T05:09:30.077Z,95.43
2022-11-12T05:10:26.498Z,95.43
2022-11-12T05:11:26.723Z,95.53
2022-11-12T05:12:26.951Z,95.48
2022-11-12T05:13:27.172Z,95.68
2022-11-12T05:14:27.407Z,95.78
2022-11-12T05:15:27.629Z,95.78
2022-11-12T05:16:27.846Z,95.68
2022-11-12T05:17:28.078Z,95.99
2022-11-12T05:18:28.488Z,96.20
2022-11-12T05:19:28.576Z,96.51
2022-11-12T05:20:28.785Z,96.72
2022-11-12T05:21:29.005Z,96.82
2022-11-12T05:22:43.415Z,96.72
2022-11-12T05:23:30.429Z,96.76
2022-11-12T05:24:41.688Z,96.86
2022-11-12T05:25:30.836Z,96.86
2022-11-12T05:26:30.065Z,96.86
2022-11-12T05:27:30.304Z,96.97
2022-11-12T05:28:30.543Z,97.38
2022-11-12T05:29:30.761Z,97.69
2022-11-12T05:30:31.935Z,97.89
2022-11-12T05:31:31.158Z,97.79
2022-11-12T05:32:31.398Z,97.79
2022-11-12T05:33:31.635Z,97.69
2022-11-12T05:34:31.869Z,97.59
2022-11-12T05:35:32.119Z,97.59
2022-11-12T05:36:32.365Z,97.59
2022-11-12T05:37:32.605Z,97.59
2022-11-12T05:38:32.842Z,97.69
2022-11-12T05:39:33.056Z,97.79
2022-11-12T05:40:33.280Z,97.69
2022-11-12T05:41:58.075Z,97.69
2022-11-12T05:42:34.687Z,97.69
2022-11-12T05:43:33.839Z,97.79
2022-11-12T05:44:35.007Z,97.79
2022-11-12T05:45:35.297Z,97.79
2022-11-12T05:46:34.533Z,97.69
2022-11-12T05:47:34.754Z,97.79
2022-11-12T05:48:35.014Z,98.00
2022-11-12T05:49:35.152Z,98.10
2022-11-12T05:50:51.360Z,98.10
2022-11-12T05:51:36.560Z,98.10
2022-11-12T05:52:35.806Z,98.00
2022-11-12T05:53:36.058Z,98.00
2022-11-12T05:54:36.302Z,97.89
2022-11-12T05:55:37.279Z,97.89
2022-11-12T05:56:36.803Z,98.00
2022-11-12T05:57:37.064Z,98.10
2022-11-12T05:58:37.315Z,98.10
2022-11-12T05:59:37.554Z,98.21
2022-11-12T06:00:37.794Z,98.21
2022-11-12T06:01:38.037Z,98.21
2022-11-12T06:02:38.387Z,98.21
2022-11-12T06:03:38.522Z,98.21
2022-11-12T06:04:38.771Z,98.21
2022-11-12T06:05:39.041Z,98.21
2022-11-12T06:06:39.235Z,98.35
2022-11-12T06:07:39.475Z,98.41
2022-11-12T06:08:39.707Z,98.52
2022-11-12T06:09:39.926Z,98.52
2022-11-12T06:10:40.154Z,98.62
2022-11-12T06:11:40.370Z,98.62
2022-11-12T06:12:40.623Z,98.72
2022-11-12T06:13:40.851Z,98.72
2022-11-12T06:14:41.079Z,98.83
2022-11-12T06:15:41.299Z,98.93
2022-11-12T06:16:41.563Z,98.93
2022-11-12T06:17:41.787Z,98.83
2022-11-12T06:18:42.027Z,98.72
2022-11-12T06:19:42.246Z,98.72
2022-11-12T06:20:42.498Z,98.62
2022-11-12T06:21:42.728Z,98.52
2022-11-12T06:22:42.956Z,98.52
2022-11-12T06:23:43.201Z,98.52
2022-11-12T06:24:43.415Z,98.41
2022-11-12T06:25:44.586Z,98.31
2022-11-12T06:26:43.916Z,98.31
2022-11-12T06:27:44.153Z,98.52
2022-11-12T06:28:44.418Z,98.52
2022-11-12T06:29:44.550Z,98.52
2022-11-12T06:30:44.779Z,98.41
2022-11-12T06:31:45.004Z,98.41
2022-11-12T06:32:45.269Z,98.31
2022-11-12T06:33:45.499Z,98.21
2022-11-12T06:34:45.720Z,98.21
2022-11-12T06:35:45.959Z,98.10
2022-11-12T06:36:46.208Z,98.10
2022-11-12T06:37:46.437Z,98.06
2022-11-12T06:38:46.678Z,98.16
2022-11-12T06:39:46.905Z,98.06
2022-11-12T06:40:47.137Z,98.16
2022-11-12T06:41:47.356Z,98.06
2022-11-12T06:42:47.601Z,98.06
2022-11-12T06:43:47.824Z,97.96
2022-11-12T06:44:48.094Z,97.85
2022-11-12T06:45:48.292Z,97.91
2022-11-12T06:46:48.510Z,97.71
2022-11-12T06:47:48.754Z,97.60
2022-11-12T06:48:48.985Z,97.60
2022-11-12T06:49:49.210Z,97.39
2022-11-12T06:50:49.440Z,97.29
2022-11-12T06:51:49.654Z,97.39
2022-11-12T06:52:49.895Z,97.29
2022-11-12T06:53:50.108Z,97.19
2022-11-12T06:54:50.324Z,96.98
2022-11-12T06:55:50.541Z,96.98
2022-11-12T06:56:50.758Z,96.73
2022-11-12T06:57:51.017Z,96.31
2022-11-12T06:58:51.240Z,96.11
2022-11-12T06:59:51.462Z,96.01
2022-11-12T07:00:51.683Z,95.59
2022-11-12T07:01:51.937Z,95.39
2022-11-12T07:02:52.175Z,95.49
2022-11-12T07:03:52.411Z,95.39
2022-11-12T07:04:52.632Z,95.39
2022-11-12T07:05:53.802Z,95.24
2022-11-12T07:06:53.085Z,95.14
2022-11-12T07:07:53.205Z,95.14
2022-11-12T07:08:53.423Z,94.99
2022-11-12T07:09:53.642Z,94.78
2022-11-12T07:10:54.824Z,94.57
2022-11-12T07:11:54.997Z,94.27
2022-11-12T07:12:54.242Z,94.17
2022-11-12T07:13:55.405Z,93.91
2022-11-12T07:14:54.629Z,92.84
2022-11-12T07:15:54.990Z,91.27
2022-11-12T07:16:55.112Z,88.82
2022-11-12T07:17:55.430Z,86.93
2022-11-12T07:18:55.510Z,85.55
2022-11-12T07:20:00.735Z,84.08
2022-11-12T07:20:56.892Z,82.29
2022-11-12T07:21:56.103Z,81.68
2022-11-12T07:22:56.324Z,81.54
2022-11-12T07:23:56.530Z,81.23
2022-11-12T07:24:56.725Z,80.44
2022-11-12T07:25:56.953Z,79.00
2022-11-12T07:26:57.161Z,78.97
2022-11-12T07:27:57.369Z,78.25
2022-11-12T07:28:58.513Z,78.25
2022-11-12T07:29:57.858Z,77.19
2022-11-12T07:30:57.933Z,76.50
2022-11-12T07:31:58.117Z,76.09
2022-11-12T07:32:58.322Z,75.96
2022-11-12T07:33:58.506Z,74.59
2022-11-12T07:34:58.690Z,73.19
2022-11-12T07:35:58.878Z,71.94
2022-11-12T07:36:59.053Z,71.12
2022-11-12T07:37:59.753Z,70.98
2022-11-12T07:38:59.380Z,70.57
2022-11-12T07:39:59.538Z,70.00
2022-11-12T07:40:59.747Z,69.59
2022-11-12T07:41:59.927Z,68.54
2022-11-12T07:43:00.105Z,70.98
2022-11-12T07:44:00.269Z,70.27
2022-11-12T07:45:00.444Z,68.81
2022-11-12T07:46:02.713Z,68.91
2022-11-12T07:47:01.758Z,69.32
2022-11-12T07:48:00.946Z,69.96
2022-11-12T07:49:01.110Z,69.73
2022-11-12T07:50:01.287Z,68.04
2022-11-12T07:51:02.207Z,68.21
2022-11-12T07:52:01.649Z,66.58
2022-11-12T07:53:02.777Z,67.36
2022-11-12T07:54:01.839Z,66.65
2022-11-12T07:55:02.081Z,67.80
2022-11-12T07:56:02.133Z,66.68
2022-11-12T07:57:02.594Z,67.87
2022-11-12T07:58:02.433Z,67.36
2022-11-12T07:59:06.330Z,66.75
2022-11-12T08:00:02.760Z,66.24
2022-11-12T08:01:02.827Z,65.63
2022-11-12T08:02:02.973Z,66.04
2022-11-12T08:03:03.143Z,66.07
2022-11-12T08:04:03.289Z,66.27
2022-11-12T08:05:06.190Z,66.82
2022-11-12T08:06:04.524Z,64.76
2022-11-12T08:07:03.773Z,64.52
2022-11-12T08:08:03.996Z,64.55
2022-11-12T08:09:04.188Z,65.26
2022-11-12T08:10:04.079Z,64.25
2022-11-12T08:11:05.324Z,63.71
2022-11-12T08:12:04.371Z,63.20
2022-11-12T08:13:04.576Z,63.94
2022-11-12T08:14:04.729Z,63.40
2022-11-12T08:15:04.770Z,63.00
2022-11-12T08:16:04.897Z,63.48
2022-11-12T08:17:05.037Z,62.43
2022-11-12T08:18:05.180Z,62.26
2022-11-12T08:19:05.317Z,62.56
2022-11-12T08:20:05.535Z,62.16
2022-11-12T08:21:05.536Z,62.76
2022-11-12T08:22:05.662Z,62.43
2022-11-12T08:23:05.837Z,61.99
2022-11-12T08:24:05.967Z,61.43
2022-11-12T08:25:06.097Z,59.45
2022-11-12T08:26:06.208Z,58.41
2022-11-12T08:27:06.337Z,58.87
2022-11-12T08:28:06.473Z,59.48
2022-11-12T08:29:08.526Z,59.70
2022-11-12T08:30:06.759Z,60.08
2022-11-12T08:31:07.019Z,59.12
2022-11-12T08:32:07.083Z,58.18
2022-11-12T08:33:07.133Z,57.72
2022-11-12T08:34:07.254Z,56.51
2022-11-12T08:35:07.374Z,56.84
2022-11-12T08:36:07.478Z,57.37
2022-11-12T08:37:07.600Z,57.78
2022-11-12T08:38:07.739Z,57.70
2022-11-12T08:39:07.845Z,57.34
2022-11-12T08:40:07.952Z,56.38
2022-11-12T08:41:08.065Z,55.44
2022-11-12T08:42:08.203Z,56.45
2022-11-12T08:43:08.312Z,56.05
2022-11-12T08:44:08.997Z,55.44
2022-11-12T08:45:08.512Z,55.74
2022-11-12T08:46:08.637Z,54.81
2022-11-12T08:47:08.869Z,54.48
2022-11-12T08:48:08.887Z,53.22
2022-11-12T08:49:08.985Z,53.14
2022-11-12T08:50:09.074Z,53.32
2022-11-12T08:51:09.166Z,53.50
2022-11-12T08:52:09.272Z,52.89
2022-11-12T08:53:09.397Z,52.80
2022-11-12T08:54:09.492Z,53.40
2022-11-12T08:55:09.576Z,53.70
2022-11-12T08:56:09.661Z,52.57
2022-11-12T08:57:09.757Z,52.69
2022-11-12T08:58:09.864Z,53.17
2022-11-12T08:59:10.001Z,52.84
2022-11-12T09:00:10.023Z,52.34
2022-11-12T09:01:10.088Z,52.04
2022-11-12T09:02:10.021Z,51.64
2022-11-12T09:03:10.157Z,51.81
2022-11-12T09:04:10.134Z,52.31
2022-11-12T09:05:10.219Z,51.61
2022-11-12T09:06:10.367Z,52.01
2022-11-12T09:07:28.571Z,52.11
2022-11-12T09:08:11.439Z,52.09
2022-11-12T09:09:10.453Z,51.46
2022-11-12T09:10:10.431Z,50.76
2022-11-12T09:11:10.518Z,50.53
2022-11-12T09:12:16.369Z,49.80
2022-11-12T09:13:11.627Z,49.83
2022-11-12T09:14:10.731Z,49.93
2022-11-12T09:16:11.894Z,50.96
2022-11-12T09:17:10.840Z,50.73
2022-11-12T09:18:10.920Z,50.84
2022-11-12T09:19:11.006Z,50.93
2022-11-12T09:20:11.086Z,51.79
2022-11-12T09:21:11.309Z,52.62
2022-11-12T09:22:11.262Z,53.22
2022-11-12T09:23:11.333Z,52.57
2022-11-12T09:24:11.434Z,51.01
2022-11-12T09:25:11.498Z,50.91
2022-11-12T09:26:11.573Z,51.61
2022-11-12T09:27:11.665Z,50.48
2022-11-12T09:28:11.740Z,50.38
2022-11-12T09:29:11.824Z,50.06
2022-11-12T09:30:11.882Z,50.16
2022-11-12T09:31:11.942Z,50.46
2022-11-12T09:32:12.065Z,49.76
2022-11-12T09:33:12.045Z,51.19
2022-11-12T09:34:12.134Z,51.61
2022-11-12T09:35:12.204Z,52.34
2022-11-12T09:36:12.366Z,52.12
2022-11-12T09:37:12.347Z,52.24
2022-11-12T09:38:12.420Z,52.22
2022-11-12T09:39:12.524Z,52.34
2022-11-12T09:40:13.196Z,52.92
2022-11-12T09:41:12.598Z,52.69
2022-11-12T09:42:12.674Z,51.74
2022-11-12T09:43:12.742Z,50.57
2022-11-12T09:44:12.845Z,50.24
2022-11-12T09:45:12.907Z,49.44
2022-11-12T09:46:27.363Z,48.67
2022-11-12T09:47:13.985Z,48.35
2022-11-12T09:48:13.079Z,47.95
2022-11-12T09:49:13.379Z,47.63
2022-11-12T09:50:13.020Z,47.35
2022-11-12T09:51:13.207Z,49.07
2022-11-12T09:52:13.165Z,48.22
2022-11-12T09:53:13.112Z,47.50
2022-11-12T09:54:13.153Z,47.22
2022-11-12T09:55:13.253Z,47.83
2022-11-12T09:56:13.243Z,48.57
2022-11-12T09:57:13.237Z,47.90
2022-11-12T09:58:13.232Z,47.06
2022-11-12T09:59:13.145Z,46.24
2022-11-12T10:00:13.205Z,45.72
2022-11-12T10:01:13.284Z,45.90
2022-11-12T10:02:13.204Z,45.92
2022-11-12T10:03:13.226Z,45.92
2022-11-12T10:04:13.268Z,45.70
2022-11-12T10:05:13.316Z,45.08
2022-11-12T10:06:18.182Z,46.96
2022-11-12T10:07:14.385Z,49.07
2022-11-12T10:08:13.404Z,50.74
2022-11-12T10:09:13.416Z,52.42
2022-11-12T10:10:13.482Z,53.87
2022-11-12T10:11:13.531Z,55.86
2022-11-12T10:12:13.596Z,57.65
2022-11-12T10:13:13.669Z,58.88
2022-11-12T10:14:13.745Z,59.52
2022-11-12T10:15:13.956Z,59.62
2022-11-12T10:16:13.876Z,60.02
2022-11-12T10:17:13.923Z,59.82
2022-11-12T10:18:14.070Z,60.55
2022-11-12T10:19:14.006Z,61.59
2022-11-12T10:20:14.686Z,61.86
2022-11-12T10:21:14.009Z,61.66
2022-11-12T10:22:14.098Z,61.96
2022-11-12T10:23:14.182Z,61.66
2022-11-12T10:24:14.290Z,61.49
2022-11-12T10:25:14.292Z,62.29
2022-11-12T10:26:14.409Z,62.12
2022-11-12T10:27:14.425Z,62.19
2022-11-12T10:28:14.666Z,62.09
2022-11-12T10:29:14.649Z,61.66
2022-11-12T10:30:14.791Z,61.89
2022-11-12T10:31:14.823Z,61.86
2022-11-12T10:32:14.920Z,61.25
2022-11-12T10:33:15.046Z,60.42
2022-11-12T10:34:15.131Z,60.65
2022-11-12T10:35:15.078Z,62.09
2022-11-12T10:36:15.180Z,62.65
2022-11-12T10:37:15.276Z,62.96
2022-11-12T10:38:15.987Z,62.83
2022-11-12T10:39:15.417Z,62.70
2022-11-12T10:40:15.732Z,61.56
2022-11-12T10:41:15.710Z,61.16
2022-11-12T10:42:15.717Z,60.93
2022-11-12T10:43:15.831Z,60.60
2022-11-12T10:44:15.927Z,59.74
2022-11-12T10:45:16.121Z,59.56
2022-11-12T10:46:16.095Z,59.26
2022-11-12T10:47:16.206Z,58.80
2022-11-12T10:48:16.396Z,57.87
2022-11-12T10:49:16.461Z,57.34
2022-11-12T10:50:16.714Z,56.58
2022-11-12T10:51:16.587Z,55.88
2022-11-12T10:52:16.717Z,55.25
2022-11-12T10:53:16.805Z,55.00
2022-11-12T10:54:16.890Z,53.87
2022-11-12T10:55:17.005Z,52.52
2022-11-12T10:56:17.101Z,52.22
2022-11-12T10:57:17.245Z,52.14
2022-11-12T10:58:17.230Z,53.07
2022-11-12T10:59:17.304Z,53.82
2022-11-12T11:00:17.464Z,54.43
2022-11-12T11:01:17.707Z,54.93
2022-11-12T11:02:17.590Z,55.45
2022-11-12T11:03:17.584Z,55.25
2022-11-12T11:04:17.716Z,54.85
2022-11-12T11:05:17.806Z,54.95
2022-11-12T11:06:18.080Z,54.65
2022-11-12T11:07:18.173Z,55.08
2022-11-12T11:08:18.056Z,55.45
2022-11-12T11:09:18.009Z,55.58
2022-11-12T11:10:18.119Z,55.83
2022-11-12T11:11:18.489Z,56.93
2022-11-12T11:12:18.276Z,56.63
2022-11-12T11:13:18.275Z,56.66
2022-11-12T11:14:18.931Z,56.84
2022-11-12T11:15:18.482Z,56.96
2022-11-12T11:16:18.480Z,57.46
2022-11-12T11:17:18.632Z,57.44
2022-11-12T11:18:18.594Z,57.94
2022-11-12T11:19:18.706Z,57.14
2022-11-12T11:20:18.849Z,57.21
2022-11-12T11:21:18.831Z,56.43
2022-11-12T11:22:18.887Z,57.26
2022-11-12T11:23:18.980Z,57.46
2022-11-12T11:24:19.063Z,57.34
2022-11-12T11:25:19.190Z,57.41
2022-11-12T11:26:19.973Z,57.51
2022-11-12T11:27:19.280Z,56.71
2022-11-12T11:28:19.380Z,56.18
2022-11-12T11:29:19.471Z,55.65
2022-11-12T11:30:19.604Z,56.01
2022-11-12T11:31:19.648Z,57.24
2022-11-12T11:32:19.884Z,57.31
2022-11-12T11:33:20.203Z,57.21
2022-11-12T11:34:19.884Z,56.48
2022-11-12T11:35:20.000Z,56.41
2022-11-12T11:36:19.997Z,56.84
2022-11-12T11:37:20.112Z,57.79
2022-11-12T11:38:20.208Z,59.39
2022-11-12T11:39:20.303Z,60.88
2022-11-12T11:40:20.437Z,62.52
2022-11-12T11:41:20.445Z,62.60
2022-11-12T11:42:20.543Z,62.16
2022-11-12T11:43:20.678Z,61.13
2022-11-12T11:44:20.728Z,60.06
2022-11-12T11:45:20.769Z,59.03
2022-11-12T11:46:20.772Z,59.10
2022-11-12T11:47:20.883Z,58.20
2022-11-12T11:48:21.378Z,58.40
2022-11-12T11:49:21.053Z,59.23
2022-11-12T11:50:21.238Z,58.53
2022-11-12T11:51:25.856Z,58.37
2022-11-12T11:52:22.290Z,58.17
2022-11-12T11:53:21.402Z,57.67
2022-11-12T11:54:21.563Z,57.64
2022-11-12T11:55:21.752Z,57.04
2022-11-12T11:56:21.689Z,57.70
2022-11-12T11:57:21.717Z,58.75
2022-11-12T11:58:21.849Z,59.26
2022-11-12T11:59:22.016Z,58.62
2022-11-12T12:00:22.134Z,58.37
2022-11-12T12:01:21.996Z,57.24
2022-11-12T12:02:21.980Z,56.05
2022-11-12T12:03:22.144Z,54.60
2022-11-12T12:04:22.198Z,54.70
2022-11-12T12:05:22.215Z,54.70
2022-11-12T12:06:23.166Z,54.20
2022-11-12T12:07:22.300Z,54.30
2022-11-12T12:08:22.324Z,54.60
2022-11-12T12:09:22.410Z,54.70
2022-11-12T12:10:22.961Z,54.17
2022-11-12T12:11:22.582Z,53.64
2022-11-12T12:12:22.581Z,53.12
2022-11-12T12:13:23.005Z,52.39
2022-11-12T12:14:23.479Z,52.39
2022-11-12T12:15:22.827Z,52.39
2022-11-12T12:16:22.858Z,51.77
2022-11-12T12:17:24.732Z,50.95
2022-11-12T12:18:24.071Z,50.45
2022-11-12T12:19:22.922Z,50.87
2022-11-12T12:20:23.032Z,51.72
2022-11-12T12:21:23.173Z,52.32
2022-11-12T12:22:23.196Z,52.52
2022-11-12T12:23:23.147Z,52.49
2022-11-12T12:24:23.216Z,51.72
2022-11-12T12:25:23.320Z,53.05
2022-11-12T12:26:23.370Z,53.82
2022-11-12T12:27:23.461Z,54.82
2022-11-12T12:28:23.638Z,53.87
2022-11-12T12:29:23.608Z,53.37
2022-11-12T12:30:23.709Z,53.50
2022-11-12T12:31:23.669Z,54.27
2022-11-12T12:32:24.603Z,52.59
2022-11-12T12:33:23.764Z,51.47
2022-11-12T12:34:23.862Z,50.82
2022-11-12T12:35:23.980Z,50.77
2022-11-12T12:36:23.932Z,51.07
2022-11-12T12:37:23.875Z,51.89
2022-11-12T12:38:25.233Z,51.79
2022-11-12T12:39:23.998Z,51.57
2022-11-12T12:40:24.097Z,51.27
2022-11-12T12:41:24.115Z,51.47
2022-11-12T12:42:24.065Z,51.79
2022-11-12T12:43:24.139Z,52.02
2022-11-12T12:44:24.238Z,52.84
2022-11-12T12:45:24.223Z,52.84
2022-11-12T12:46:24.192Z,52.29
2022-11-12T12:47:24.255Z,51.79
2022-11-12T12:48:24.633Z,51.77
2022-11-12T12:49:24.302Z,51.57
2022-11-12T12:50:24.390Z,51.64
2022-11-12T12:51:24.476Z,50.10
2022-11-12T12:52:24.533Z,49.90
2022-11-12T12:53:24.599Z,50.20
2022-11-12T12:54:24.661Z,49.50
2022-11-12T12:55:24.758Z,49.60